createdAt,value
2023-03-29T00:00:15.816Z,99759.40
2023-03-29T00:03:04.414Z,99756.10
2023-03-29T00:05:35.057Z,99754.02
2023-03-29T00:08:04.374Z,99753.85
2023-03-29T00:10:33.809Z,99752.98
2023-03-29T00:13:02.839Z,99752.13
2023-03-29T00:15:30.826Z,99751.27
2023-03-29T00:17:58.719Z,99745.91
2023-03-29T00:20:27.073Z,99747.45
2023-03-29T00:22:54.873Z,99747.45
2023-03-29T00:25:22.910Z,99748.14
2023-03-29T00:27:50.740Z,99747.79
2023-03-29T00:30:18.770Z,99745.20
2023-03-29T00:32:47.170Z,99746.42
2023-03-29T00:35:15.151Z,99745.55
2023-03-29T00:37:43.397Z,99745.02
2023-03-29T00:40:15.471Z,99745.37
2023-03-29T00:42:46.479Z,99742.42
2023-03-29T00:45:30.464Z,99741.73
2023-03-29T00:48:02.899Z,99741.91
2023-03-29T00:50:36.345Z,99741.91
2023-03-29T00:53:06.984Z,99741.55
2023-03-29T00:56:16.895Z,99736.89
2023-03-29T00:58:51.980Z,99732.75
2023-03-29T01:01:28.307Z,99727.20
2023-03-29T01:04:18.699Z,99726.86
2023-03-29T01:06:54.238Z,99729.11
2023-03-29T01:09:27.065Z,99729.45
2023-03-29T01:11:57.641Z,99728.93
2023-03-29T01:14:33.910Z,99723.58
2023-03-29T01:17:02.212Z,99722.04
2023-03-29T01:19:38.725Z,99719.79
2023-03-29T01:22:30.966Z,99717.88
2023-03-29T01:25:07.363Z,99715.12
2023-03-29T01:27:41.477Z,99709.95
2023-03-29T01:30:14.351Z,99710.47
2023-03-29T01:32:50.555Z,99709.42
2023-03-29T01:35:25.001Z,99707.35
2023-03-29T01:38:00.540Z,99702.36
2023-03-29T01:40:28.479Z,99700.46
2023-03-29T01:43:11.543Z,99700.82
2023-03-29T01:46:19.114Z,99698.05
2023-03-29T01:48:54.948Z,99696.17
2023-03-29T01:51:29.326Z,99698.06
2023-03-29T01:54:03.222Z,99694.97
2023-03-29T01:56:36.868Z,99690.31
2023-03-29T01:59:11.259Z,99692.73
2023-03-29T02:01:49.272Z,99693.60
2023-03-29T02:04:27.808Z,99688.26
2023-03-29T02:06:59.374Z,99691.73
2023-03-29T02:09:29.346Z,99692.59
2023-03-29T02:12:00.924Z,99691.06
2023-03-29T02:14:30.436Z,99689.17
2023-03-29T02:17:20.308Z,99690.20
2023-03-29T02:19:53.483Z,99684.86
2023-03-29T02:22:28.597Z,99682.10
2023-03-29T02:24:59.515Z,99677.79
2023-03-29T02:27:29.587Z,99678.98
2023-03-29T02:29:58.597Z,99677.09
2023-03-29T02:32:48.873Z,99676.91
2023-03-29T02:35:34.439Z,99671.89
2023-03-29T02:38:10.503Z,99664.80
2023-03-29T02:40:39.749Z,99662.02
2023-03-29T02:43:09.210Z,99659.94
2023-03-29T02:45:39.966Z,99657.01
2023-03-29T02:48:12.644Z,99654.92
2023-03-29T02:50:43.057Z,99650.27
2023-03-29T02:53:18.057Z,99645.41
2023-03-29T02:55:46.953Z,99644.38
2023-03-29T02:58:15.563Z,99641.09
2023-03-29T03:00:48.849Z,99640.21
2023-03-29T03:03:17.088Z,99636.95
2023-03-29T03:05:46.829Z,99635.55
2023-03-29T03:08:15.461Z,99634.88
2023-03-29T03:10:43.291Z,99631.42
2023-03-29T03:13:11.694Z,99630.39
2023-03-29T03:15:42.815Z,99628.67
2023-03-29T03:18:10.859Z,99629.36
2023-03-29T03:20:40.176Z,99626.09
2023-03-29T03:23:12.058Z,99629.02
2023-03-29T03:25:40.116Z,99631.10
2023-03-29T03:28:08.061Z,99631.97
2023-03-29T03:30:35.861Z,99628.52
2023-03-29T03:33:32.657Z,99628.70
2023-03-29T03:36:29.167Z,99625.24
2023-03-29T03:38:57.686Z,99624.71
2023-03-29T03:41:26.352Z,99623.16
2023-03-29T03:43:54.996Z,99618.48
2023-03-29T03:46:23.615Z,99616.76
2023-03-29T03:48:51.655Z,99615.89
2023-03-29T03:51:28.763Z,99613.48
2023-03-29T03:53:56.927Z,99609.48
2023-03-29T03:56:37.396Z,99608.09
2023-03-29T03:59:05.802Z,99608.44
2023-03-29T04:01:43.414Z,99608.42
2023-03-29T04:04:19.871Z,99606.52
2023-03-29T04:07:03.755Z,99607.38
2023-03-29T04:09:55.580Z,99610.48
2023-03-29T04:12:46.600Z,99609.95
2023-03-29T04:15:14.530Z,99609.95
2023-03-29T04:17:47.800Z,99608.21
2023-03-29T04:20:27.102Z,99605.77
2023-03-29T04:22:55.258Z,99604.21
2023-03-29T04:25:24.102Z,99603.33
2023-03-29T04:28:21.512Z,99599.71
2023-03-29T04:30:53.227Z,99599.01
2023-03-29T04:33:31.889Z,99598.13
2023-03-29T04:36:01.834Z,99598.82
2023-03-29T04:38:31.942Z,99597.24
2023-03-29T04:41:01.142Z,99593.61
2023-03-29T04:44:08.426Z,99589.44
2023-03-29T04:46:37.779Z,99585.94
2023-03-29T04:49:06.400Z,99582.13
2023-03-29T04:51:36.533Z,99584.15
2023-03-29T04:54:04.732Z,99580.63
2023-03-29T04:56:39.472Z,99577.95
2023-03-29T04:59:28.266Z,99578.19
2023-03-29T05:01:56.553Z,99578.07
2023-03-29T05:04:24.727Z,99576.20
2023-03-29T05:07:04.544Z,99571.56
2023-03-29T05:09:35.457Z,99566.22
2023-03-29T05:12:05.020Z,99562.48
2023-03-29T05:14:41.347Z,99564.80
2023-03-29T05:17:09.374Z,99562.70
2023-03-29T05:19:38.392Z,99557.32
2023-03-29T05:22:08.972Z,99550.05
2023-03-29T05:24:37.517Z,99545.27
2023-03-29T05:27:12.952Z,99548.45
2023-03-29T05:29:41.072Z,99545.36
2023-03-29T05:32:22.231Z,99545.48
2023-03-29T05:34:50.391Z,99540.48
2023-03-29T05:37:18.857Z,99536.58
2023-03-29T05:39:50.562Z,99530.94
2023-03-29T05:42:22.562Z,99529.39
2023-03-29T05:44:55.558Z,99526.80
2023-03-29T05:47:24.801Z,99534.86
2023-03-29T05:49:52.761Z,99538.59
2023-03-29T05:52:24.642Z,99541.04
2023-03-29T05:54:52.877Z,99534.81
2023-03-29T05:57:21.495Z,99537.54
2023-03-29T05:59:49.435Z,99533.48
2023-03-29T06:02:17.405Z,99531.14
2023-03-29T06:04:49.366Z,99526.03
2023-03-29T06:07:23.544Z,99522.71
2023-03-29T06:10:21.074Z,99517.08
2023-03-29T06:12:52.110Z,99513.96
2023-03-29T06:15:22.449Z,99509.39
2023-03-29T06:17:53.173Z,99509.58
2023-03-29T06:20:21.527Z,99504.90
2023-03-29T06:22:53.482Z,99505.64
2023-03-29T06:25:21.430Z,99502.40
2023-03-29T06:27:49.991Z,99504.90
2023-03-29T06:30:19.284Z,99509.27
2023-03-29T06:32:50.578Z,99508.20
2023-03-29T06:35:44.196Z,99507.66
2023-03-29T06:38:15.351Z,99498.58
2023-03-29T06:41:07.372Z,99492.40
2023-03-29T06:43:55.604Z,99495.11
2023-03-29T06:46:26.253Z,99489.91
2023-03-29T06:48:56.976Z,99486.06
2023-03-29T06:51:27.660Z,99486.49
2023-03-29T06:53:55.557Z,99488.59
2023-03-29T06:56:23.935Z,99482.27
2023-03-29T06:59:03.400Z,99481.59
2023-03-29T07:01:43.097Z,99484.47
2023-03-29T07:04:18.909Z,99480.81
2023-03-29T07:07:20.062Z,99475.52
2023-03-29T07:09:54.090Z,99478.13
2023-03-29T07:12:49.075Z,99473.70
2023-03-29T07:15:17.347Z,99480.03
2023-03-29T07:18:05.599Z,99478.61
2023-03-29T07:20:34.338Z,99479.61
2023-03-29T07:23:11.492Z,99479.25
2023-03-29T07:25:40.991Z,99480.73
2023-03-29T07:28:09.235Z,99475.96
2023-03-29T07:30:37.325Z,99479.46
2023-03-29T07:33:17.877Z,99481.04
2023-03-29T07:35:51.043Z,99478.67
2023-03-29T07:38:18.948Z,99478.02
2023-03-29T07:40:50.026Z,99476.45
2023-03-29T07:43:36.512Z,99472.78
2023-03-29T07:46:06.135Z,99470.66
2023-03-29T07:48:37.165Z,99469.02
2023-03-29T07:51:07.680Z,99465.31
2023-03-29T07:53:55.770Z,99466.40
2023-03-29T07:56:31.828Z,99462.47
2023-03-29T07:59:22.304Z,99461.55
2023-03-29T08:01:56.741Z,99458.95
2023-03-29T08:04:32.947Z,99455.79
2023-03-29T08:07:21.183Z,99455.62
2023-03-29T08:10:10.425Z,99454.09
2023-03-29T08:12:50.560Z,99451.08
2023-03-29T08:15:20.009Z,99452.95
2023-03-29T08:17:48.366Z,99451.92
2023-03-29T08:20:16.554Z,99448.20
2023-03-29T08:22:46.311Z,99446.10
2023-03-29T08:25:32.921Z,99446.82
2023-03-29T08:28:01.033Z,99441.41
2023-03-29T08:30:55.069Z,99435.30
2023-03-29T08:33:23.244Z,99438.27
2023-03-29T08:36:04.146Z,99434.94
2023-03-29T08:38:34.121Z,99428.59
2023-03-29T08:41:12.801Z,99426.54
2023-03-29T08:44:04.794Z,99422.34
2023-03-29T08:47:05.118Z,99421.05
2023-03-29T08:49:39.898Z,99420.73
2023-03-29T08:52:19.714Z,99417.52
2023-03-29T08:54:51.773Z,99422.66
2023-03-29T08:57:49.542Z,99424.55
2023-03-29T09:00:31.190Z,99419.73
2023-03-29T09:03:02.380Z,99419.91
2023-03-29T09:05:35.148Z,99419.66
2023-03-29T09:08:19.674Z,99415.86
2023-03-29T09:11:03.285Z,99414.41
2023-03-29T09:14:03.365Z,99412.72
2023-03-29T09:16:57.052Z,99409.98
2023-03-29T09:19:49.242Z,99407.77
2023-03-29T09:22:55.127Z,99408.69
2023-03-29T09:25:50.675Z,99408.31
2023-03-29T09:28:37.059Z,99408.76
2023-03-29T09:31:22.952Z,99409.76
2023-03-29T09:34:10.464Z,99407.41
2023-03-29T09:37:04.088Z,99404.88
2023-03-29T09:39:32.753Z,99402.71
2023-03-29T09:42:09.364Z,99404.27
2023-03-29T09:44:38.075Z,99406.38
2023-03-29T09:47:15.515Z,99405.45
2023-03-29T09:49:47.892Z,99399.02
2023-03-29T09:52:17.610Z,99402.05
2023-03-29T09:54:52.460Z,99404.58
2023-03-29T09:57:47.198Z,99395.72
2023-03-29T10:00:17.109Z,99394.84
2023-03-29T10:02:57.146Z,99396.90
2023-03-29T10:05:36.739Z,99395.53
2023-03-29T10:08:28.060Z,99386.04
2023-03-29T10:11:00.308Z,99383.27
2023-03-29T10:13:31.103Z,99380.89
2023-03-29T10:16:04.630Z,99382.48
2023-03-29T10:18:38.995Z,99376.92
2023-03-29T10:21:07.451Z,99375.50
2023-03-29T10:23:38.019Z,99375.80
2023-03-29T10:26:11.710Z,99377.42
2023-03-29T10:28:40.031Z,99374.63
2023-03-29T10:31:17.817Z,99369.39
2023-03-29T10:33:52.437Z,99368.55
2023-03-29T10:36:22.482Z,99370.04
2023-03-29T10:38:52.803Z,99368.27
2023-03-29T10:41:23.136Z,99367.94
2023-03-29T10:43:51.691Z,99364.48
2023-03-29T10:46:22.506Z,99362.96
2023-03-29T10:48:55.792Z,99362.17
2023-03-29T10:51:25.286Z,99353.59
2023-03-29T10:53:53.319Z,99356.16
2023-03-29T10:56:41.505Z,99352.93
2023-03-29T10:59:33.973Z,99345.30
2023-03-29T11:02:14.162Z,99342.28
2023-03-29T11:04:47.736Z,99335.83
2023-03-29T11:07:25.444Z,99332.48
2023-03-29T11:10:08.681Z,99329.80
2023-03-29T11:12:48.291Z,99329.14
2023-03-29T11:15:39.126Z,99322.48
2023-03-29T11:18:22.300Z,99316.77
2023-03-29T11:21:02.259Z,99316.55
2023-03-29T11:23:46.072Z,99315.64
2023-03-29T11:26:27.654Z,99313.66
2023-03-29T11:29:20.859Z,99311.83
2023-03-29T11:32:01.014Z,99305.84
2023-03-29T11:34:43.407Z,99299.46
2023-03-29T11:37:28.733Z,99299.29
2023-03-29T11:40:21.883Z,99292.98
2023-03-29T11:42:54.113Z,99294.13
2023-03-29T11:45:37.508Z,99292.35
2023-03-29T11:48:13.489Z,99285.98
2023-03-29T11:51:11.301Z,99282.29
2023-03-29T11:53:49.014Z,99279.84
2023-03-29T11:56:29.185Z,99275.44
2023-03-29T11:59:05.343Z,99275.06
2023-03-29T12:02:05.324Z,99272.32
2023-03-29T12:04:40.638Z,99267.63
2023-03-29T12:07:11.456Z,99267.84
2023-03-29T12:09:46.843Z,99267.98
2023-03-29T12:12:27.057Z,99264.63
2023-03-29T12:15:10.962Z,99261.30
2023-03-29T12:18:01.779Z,99260.97
2023-03-29T12:20:34.910Z,99259.45
2023-03-29T12:23:06.089Z,99253.73
2023-03-29T12:26:10.746Z,99246.41
2023-03-29T12:29:05.469Z,99242.55
2023-03-29T12:32:11.481Z,99238.64
2023-03-29T12:35:15.422Z,99238.45
2023-03-29T12:38:22.930Z,99233.30
2023-03-29T12:41:19.076Z,99229.88
2023-03-29T12:44:06.861Z,99229.83
2023-03-29T12:46:59.259Z,99225.61
2023-03-29T12:49:31.788Z,99222.72
2023-03-29T12:52:02.456Z,99215.98
2023-03-29T12:54:33.805Z,99218.09
2023-03-29T12:57:19.786Z,99213.48
2023-03-29T12:59:49.530Z,99211.16
2023-03-29T13:02:18.010Z,99216.62
2023-03-29T13:04:52.554Z,99217.16
2023-03-29T13:07:23.395Z,99214.87
2023-03-29T13:10:00.232Z,99217.70
2023-03-29T13:12:36.779Z,99212.59
2023-03-29T13:15:23.118Z,99212.59
2023-03-29T13:18:00.054Z,99213.85
2023-03-29T13:20:43.320Z,99214.09
2023-03-29T13:23:36.340Z,99215.80
2023-03-29T13:26:19.032Z,99213.18
2023-03-29T13:29:01.431Z,99212.67
2023-03-29T13:31:50.449Z,99212.04
2023-03-29T13:34:31.032Z,99210.14
2023-03-29T13:37:48.755Z,99209.05
2023-03-29T13:40:38.904Z,99210.66
2023-03-29T13:43:22.228Z,99200.21
2023-03-29T13:45:58.897Z,99198.96
2023-03-29T13:48:29.377Z,99190.35
2023-03-29T13:51:02.157Z,99186.01
2023-03-29T13:53:39.061Z,99187.74
2023-03-29T13:56:15.239Z,99192.45
2023-03-29T13:58:48.207Z,99195.58
2023-03-29T14:01:43.638Z,99192.88
2023-03-29T14:04:18.228Z,99194.61
2023-03-29T14:06:53.060Z,99203.98
2023-03-29T14:09:30.007Z,99210.04
2023-03-29T14:12:01.367Z,99208.89
2023-03-29T14:14:32.156Z,99215.87
2023-03-29T14:17:00.796Z,99211.71
2023-03-29T14:19:32.970Z,99209.43
2023-03-29T14:22:02.760Z,99211.96
2023-03-29T14:24:38.460Z,99211.85
2023-03-29T14:27:11.594Z,99210.73
2023-03-29T14:29:39.769Z,99202.79
2023-03-29T14:32:13.389Z,99192.98
2023-03-29T14:34:41.919Z,99185.79
2023-03-29T14:37:16.953Z,99177.89
2023-03-29T14:39:45.753Z,99172.77
2023-03-29T14:42:24.454Z,99177.87
2023-03-29T14:44:58.479Z,99177.55
2023-03-29T14:47:29.528Z,99174.64
2023-03-29T14:50:00.864Z,99175.65
2023-03-29T14:52:30.783Z,99178.48
2023-03-29T14:55:01.953Z,99177.61
2023-03-29T14:57:35.579Z,99177.95
2023-03-29T15:00:19.510Z,99173.55
2023-03-29T15:02:54.622Z,99169.09
2023-03-29T15:05:31.194Z,99166.58
2023-03-29T15:08:00.315Z,99164.19
2023-03-29T15:10:32.256Z,99166.46
2023-03-29T15:13:03.450Z,99166.00
2023-03-29T15:15:38.459Z,99170.10
2023-03-29T15:18:08.344Z,99163.93
2023-03-29T15:20:41.241Z,99166.86
2023-03-29T15:23:22.506Z,99166.17
2023-03-29T15:25:58.737Z,99172.35
2023-03-29T15:28:33.015Z,99173.48
2023-03-29T15:31:26.374Z,99167.86
2023-03-29T15:34:27.659Z,99169.48
2023-03-29T15:36:57.856Z,99167.28
2023-03-29T15:39:30.384Z,99165.83
2023-03-29T15:41:58.455Z,99168.05
2023-03-29T15:44:29.355Z,99165.00
2023-03-29T15:46:58.382Z,99168.41
2023-03-29T15:49:26.702Z,99169.98
2023-03-29T15:51:54.804Z,99173.92
2023-03-29T15:54:25.279Z,99174.26
2023-03-29T15:56:59.458Z,99174.06
2023-03-29T15:59:27.701Z,99169.13
2023-03-29T16:01:56.721Z,99160.38
2023-03-29T16:04:25.724Z,99160.59
2023-03-29T16:06:55.298Z,99158.84
2023-03-29T16:09:23.643Z,99159.90
2023-03-29T16:11:51.844Z,99161.68
2023-03-29T16:14:25.432Z,99157.73
2023-03-29T16:16:55.492Z,99152.88
2023-03-29T16:19:25.051Z,99150.81
2023-03-29T16:21:54.034Z,99153.30
2023-03-29T16:24:24.655Z,99151.58
2023-03-29T16:26:55.323Z,99156.25
2023-03-29T16:29:24.748Z,99159.79
2023-03-29T16:31:53.678Z,99161.96
2023-03-29T16:34:22.760Z,99162.05
2023-03-29T16:36:51.048Z,99161.59
2023-03-29T16:39:18.932Z,99159.65
2023-03-29T16:41:48.941Z,99161.69
2023-03-29T16:44:22.451Z,99159.95
2023-03-29T16:46:54.231Z,99161.22
2023-03-29T16:49:22.432Z,99150.90
2023-03-29T16:51:50.432Z,99147.15
2023-03-29T16:54:19.010Z,99144.32
2023-03-29T16:56:47.345Z,99140.55
2023-03-29T16:59:15.434Z,99138.34
2023-03-29T17:01:43.456Z,99136.94
2023-03-29T17:04:14.089Z,99136.86
2023-03-29T17:06:42.106Z,99132.89
2023-03-29T17:09:10.057Z,99132.17
2023-03-29T17:11:38.020Z,99130.24
2023-03-29T17:14:06.232Z,99129.38
2023-03-29T17:16:34.221Z,99130.14
2023-03-29T17:19:02.441Z,99134.58
2023-03-29T17:21:30.788Z,99133.84
2023-03-29T17:23:58.800Z,99128.66
2023-03-29T17:26:26.802Z,99124.64
2023-03-29T17:28:54.804Z,99129.29
2023-03-29T17:31:22.850Z,99132.38
2023-03-29T17:33:52.115Z,99128.11
2023-03-29T17:36:24.144Z,99132.08
2023-03-29T17:38:52.178Z,99125.77
2023-03-29T17:41:21.413Z,99127.13
2023-03-29T17:43:50.926Z,99130.59
2023-03-29T17:46:22.852Z,99129.33
2023-03-29T17:48:51.359Z,99132.50
2023-03-29T17:51:19.969Z,99135.34
2023-03-29T17:53:47.911Z,99136.07
2023-03-29T17:56:16.135Z,99144.52
2023-03-29T17:58:44.009Z,99143.49
2023-03-29T18:01:13.653Z,99138.82
2023-03-29T18:03:42.211Z,99137.35
2023-03-29T18:06:11.522Z,99136.40
2023-03-29T18:08:40.627Z,99135.80
2023-03-29T18:11:11.768Z,99136.05
2023-03-29T18:13:39.960Z,99128.58
2023-03-29T18:16:09.179Z,99133.58
2023-03-29T18:18:38.369Z,99132.91
2023-03-29T18:21:10.140Z,99136.27
2023-03-29T18:23:40.077Z,99136.73
2023-03-29T18:26:09.445Z,99135.42
2023-03-29T18:28:37.730Z,99136.52
2023-03-29T18:31:06.439Z,99139.76
2023-03-29T18:33:38.007Z,99136.50
2023-03-29T18:36:10.794Z,99132.05
2023-03-29T18:38:43.272Z,99128.65
2023-03-29T18:41:12.903Z,99124.37
2023-03-29T18:43:42.990Z,99127.19
2023-03-29T18:46:11.225Z,99130.45
2023-03-29T18:48:39.345Z,99133.90
2023-03-29T18:51:09.835Z,99130.91
2023-03-29T18:53:39.231Z,99130.73
2023-03-29T18:56:08.012Z,99127.41
2023-03-29T18:58:36.384Z,99126.07
2023-03-29T19:01:05.982Z,99129.70
2023-03-29T19:03:34.960Z,99128.00
2023-03-29T19:06:04.085Z,99123.98
2023-03-29T19:08:34.226Z,99121.70
2023-03-29T19:11:05.525Z,99123.14
2023-03-29T19:13:33.908Z,99122.82
2023-03-29T19:16:02.280Z,99119.17
2023-03-29T19:18:30.971Z,99116.90
2023-03-29T19:20:59.049Z,99113.75
2023-03-29T19:23:28.251Z,99116.42
2023-03-29T19:26:03.717Z,99112.82
2023-03-29T19:28:33.736Z,99110.96
2023-03-29T19:31:03.273Z,99110.61
2023-03-29T19:33:32.373Z,99104.80
2023-03-29T19:36:00.681Z,99101.12
2023-03-29T19:38:28.670Z,99099.36
2023-03-29T19:40:56.641Z,99099.88
2023-03-29T19:43:24.900Z,99101.70
2023-03-29T19:45:53.029Z,99097.34
2023-03-29T19:48:23.952Z,99093.13
2023-03-29T19:50:52.549Z,99092.23
2023-03-29T19:53:21.205Z,99090.14
2023-03-29T19:55:49.548Z,99088.44
2023-03-29T19:58:17.420Z,99083.36
2023-03-29T20:00:45.454Z,99085.93
2023-03-29T20:03:14.021Z,99089.30
2023-03-29T20:05:42.371Z,99085.77
2023-03-29T20:08:10.392Z,99083.16
2023-03-29T20:10:38.427Z,99080.31
2023-03-29T20:13:06.670Z,99079.60
2023-03-29T20:15:35.022Z,99085.18
2023-03-29T20:18:03.664Z,99087.92
2023-03-29T20:20:31.903Z,99089.97
2023-03-29T20:23:04.657Z,99091.06
2023-03-29T20:25:36.117Z,99085.67
2023-03-29T20:28:04.811Z,99085.78
2023-03-29T20:30:32.908Z,99082.92
2023-03-29T20:33:00.952Z,99084.95
2023-03-29T20:35:28.868Z,99081.99
2023-03-29T20:37:56.696Z,99078.73
2023-03-29T20:40:24.787Z,99072.89
2023-03-29T20:42:54.256Z,99062.39
2023-03-29T20:45:22.160Z,99065.16
2023-03-29T20:48:02.107Z,99060.71
2023-03-29T20:50:30.058Z,99058.08
2023-03-29T20:53:02.209Z,99059.78
2023-03-29T20:55:33.260Z,99063.02
2023-03-29T20:58:02.377Z,99055.71
2023-03-29T21:00:32.883Z,99054.42
2023-03-29T21:03:03.421Z,99055.23
2023-03-29T21:05:33.154Z,99051.86
2023-03-29T21:08:02.462Z,99050.38
2023-03-29T21:10:30.871Z,99051.41
2023-03-29T21:13:02.807Z,99052.08
2023-03-29T21:15:31.946Z,99048.86
2023-03-29T21:17:59.982Z,99046.69
2023-03-29T21:20:27.873Z,99043.89
2023-03-29T21:22:55.961Z,99037.39
2023-03-29T21:25:23.816Z,99037.48
2023-03-29T21:27:51.661Z,99036.02
2023-03-29T21:30:19.477Z,99032.56
2023-03-29T21:32:47.433Z,99031.45
2023-03-29T21:35:15.635Z,99031.41
2023-03-29T21:37:43.431Z,99028.04
2023-03-29T21:40:12.641Z,99022.88
2023-03-29T21:42:40.475Z,99015.94
2023-03-29T21:45:09.276Z,99009.77
2023-03-29T21:47:37.204Z,99011.12
2023-03-29T21:50:05.958Z,99013.25
2023-03-29T21:52:33.848Z,99011.65
2023-03-29T21:55:01.721Z,99008.61
2023-03-29T21:57:29.779Z,99003.11
2023-03-29T21:59:57.790Z,99001.28
2023-03-29T22:02:25.792Z,98998.08
2023-03-29T22:04:53.692Z,98996.34
2023-03-29T22:07:26.495Z,98997.46
2023-03-29T22:09:54.721Z,98995.13
2023-03-29T22:12:22.746Z,98990.84
2023-03-29T22:14:50.640Z,98990.24
2023-03-29T22:17:19.219Z,98991.78
2023-03-29T22:19:47.525Z,98990.40
2023-03-29T22:22:15.391Z,98986.52
2023-03-29T22:24:43.286Z,98977.85
2023-03-29T22:27:11.798Z,98978.65
2023-03-29T22:29:39.612Z,98973.66
2023-03-29T22:32:07.457Z,98968.39
2023-03-29T22:34:35.407Z,98970.09
2023-03-29T22:37:03.354Z,98965.84
2023-03-29T22:39:31.179Z,98966.55
2023-03-29T22:41:59.117Z,98963.92
2023-03-29T22:44:27.157Z,98965.81
2023-03-29T22:46:55.773Z,98966.90
2023-03-29T22:49:23.737Z,98962.78
2023-03-29T22:51:51.717Z,98962.66
2023-03-29T22:54:19.531Z,98959.28
2023-03-29T22:56:47.460Z,98958.84
2023-03-29T22:59:15.889Z,98964.16
2023-03-29T23:01:43.730Z,98965.05
2023-03-29T23:04:11.649Z,98957.36
2023-03-29T23:06:39.546Z,98952.70
2023-03-29T23:09:07.915Z,98948.59
2023-03-29T23:11:36.236Z,98947.16
2023-03-29T23:14:04.167Z,98947.23
2023-03-29T23:16:32.219Z,98948.34
2023-03-29T23:19:00.130Z,98948.96
2023-03-29T23:21:28.268Z,98947.92
2023-03-29T23:23:56.155Z,98950.31
2023-03-29T23:26:24.077Z,98945.83
2023-03-29T23:28:54.359Z,98941.73
2023-03-29T23:31:23.834Z,98943.80
2023-03-29T23:33:53.075Z,98944.64
2023-03-29T23:36:27.056Z,98939.39
2023-03-29T23:38:54.867Z,98931.62
2023-03-29T23:41:22.971Z,98934.21
2023-03-29T23:43:52.256Z,98930.14
2023-03-29T23:46:21.393Z,98928.34
2023-03-29T23:48:50.781Z,98928.81
2023-03-29T23:51:23.086Z,98926.85
2023-03-29T23:53:51.726Z,98926.27
2023-03-29T23:56:21.459Z,98924.55
2023-03-29T23:58:49.468Z,98928.16
